Time;durP1;ratioP1;P1;durP2;ratioP2;P2;SDS_P1;SDS_P2;PMS_P1;PMS_P2;Temp;Humidity;BMP_temperature;BMP_pressure;BME280_temperature;BME280_humidity;BME280_pressure;Samples;Min_cycle;Max_cycle;Signal;HPM_P1;HPM_P2
2022/06/06 00:01:16;;;;;;;;;;;;;;;18.07;78.62;100008.03;5072633;28;19924;-54
2022/06/06 00:03:43;;;;;;;;;;;;;;;18.10;79.37;100007.25;5072500;28;19933;-53
2022/06/06 00:06:11;;;;;;;;;;;;;;;18.13;78.42;100024.25;5073007;28;19931;-54
2022/06/06 00:08:38;;;;;;;;;;;;;;;18.09;78.64;100031.81;5072535;28;19932;-54
2022/06/06 00:11:08;;;;;;;;;;;;;;;18.08;77.44;100023.72;5072467;28;19925;-52
2022/06/06 00:13:42;;;;;;;;;;;;;;;18.02;77.48;100028.91;5072387;28;20389;-52
2022/06/06 00:16:09;;;;;;;;;;;;;;;18.14;75.90;100030.69;5072819;28;19925;-52
2022/06/06 00:18:37;;;;;;;;;;;;;;;17.97;75.84;100032.00;5072576;28;20285;-52
2022/06/06 00:21:08;;;;;;;;;;;;;;;17.95;74.84;100043.66;5072513;28;20377;-52
2022/06/06 00:23:39;;;;;;;;;;;;;;;17.90;76.18;100023.44;5071806;28;20377;-52
2022/06/06 00:26:09;;;;;;;;;;;;;;;17.89;75.39;100021.78;5072826;28;19925;-52
2022/06/06 00:28:39;;;;;;;;;;;;;;;17.84;76.36;100020.91;5072368;28;19924;-52
2022/06/06 00:36:32;;;;;;;;;;;;;;;17.61;75.78;100028.50;5076883;28;19924;-52
2022/06/06 00:38:59;;;;;;;;;;;;;;;17.51;75.57;100031.94;5072394;28;19932;-52
2022/06/06 00:41:26;;;;;;;;;;;;;;;17.42;75.85;100018.09;5072529;28;19924;-52
2022/06/06 00:44:05;;;;;;;;;;;;;;;17.53;75.49;100019.09;5072338;28;19949;-53
2022/06/06 00:46:32;;;;;;;;;;;;;;;17.54;77.35;100017.91;5072021;28;19931;-52
2022/06/06 00:48:59;;;;;;;;;;;;;;;17.53;77.16;100023.91;5072656;28;19924;-53
2022/06/06 00:51:28;;;;;;;;;;;;;;;17.48;76.14;100033.50;5072198;28;19931;-52
2022/06/06 00:53:56;;;;;;;;;;;;;;;17.42;75.44;100020.91;5077938;28;19924;-55
2022/06/06 00:56:26;;;;;;;;;;;;;;;17.43;75.89;100036.63;5113107;28;19924;-54
2022/06/06 00:58:54;;;;;;;;;;;;;;;17.34;75.55;100045.25;5112732;28;19923;-52
2022/06/06 01:01:24;;;;;;;;;;;;;;;17.29;76.47;100025.06;5112705;28;19931;-52
2022/06/06 01:03:51;;;;;;;;;;;;;;;17.39;76.06;100039.34;5112429;28;19923;-52
2022/06/06 01:06:20;;;;;;;;;;;;;;;17.34;75.67;100030.38;5112660;28;20446;-52
2022/06/06 01:08:47;;;;;;;;;;;;;;;17.33;76.15;100026.75;5112318;28;19923;-52
2022/06/06 01:11:14;;;;;;;;;;;;;;;17.37;76.69;100029.66;5112695;28;19923;-52
2022/06/06 01:13:43;;;;;;;;;;;;;;;17.34;75.78;100025.56;5112486;28;19928;-52
2022/06/06 01:16:18;;;;;;;;;;;;;;;17.37;76.28;100038.91;5112511;28;19931;-52
2022/06/06 01:18:56;;;;;;;;;;;;;;;17.40;76.56;100031.72;5112510;28;19931;-51
2022/06/06 01:21:41;;;;;;;;;;;;;;;17.47;76.34;100033.84;5112774;28;19924;-53
2022/06/06 01:24:23;;;;;;;;;;;;;;;17.49;77.30;100031.47;5112832;28;19924;-55
2022/06/06 01:27:01;;;;;;;;;;;;;;;17.48;77.55;100032.69;5111039;28;19924;-54
2022/06/06 01:29:34;;;;;;;;;;;;;;;17.47;76.07;100042.31;5112669;28;19928;-52
2022/06/06 01:32:04;;;;;;;;;;;;;;;17.51;77.98;100040.38;5112648;28;19927;-52
2022/06/06 01:34:33;;;;;;;;;;;;;;;17.46;76.59;100041.50;5115035;28;20272;-53
2022/06/06 01:37:00;;;;;;;;;;;;;;;17.51;76.74;100043.19;5116386;28;19927;-54
2022/06/06 01:39:29;;;;;;;;;;;;;;;17.54;76.97;100036.81;5115977;28;19924;-52
2022/06/06 01:42:03;;;;;;;;;;;;;;;17.59;75.34;100042.16;5116324;28;19924;-52
2022/06/06 01:44:38;;;;;;;;;;;;;;;17.47;76.00;100042.31;5115890;28;19924;-52
2022/06/06 01:47:07;;;;;;;;;;;;;;;17.42;76.10;100058.31;5116283;28;19924;-52
2022/06/06 01:49:35;;;;;;;;;;;;;;;17.45;76.27;100037.88;5115789;28;19924;-53
2022/06/06 01:52:03;;;;;;;;;;;;;;;17.54;78.33;100036.81;5116325;28;19923;-52
2022/06/06 01:54:33;;;;;;;;;;;;;;;17.51;77.13;100037.56;5106713;28;20276;-53
2022/06/06 01:57:01;;;;;;;;;;;;;;;17.53;76.09;100052.06;5095603;28;19928;-52
2022/06/06 01:59:29;;;;;;;;;;;;;;;17.54;76.48;100043.25;5095255;28;19931;-53
2022/06/06 02:01:57;;;;;;;;;;;;;;;17.54;76.98;100045.28;5095474;28;20288;-51
2022/06/06 02:04:25;;;;;;;;;;;;;;;17.48;76.18;100039.13;5095466;28;20266;-54
2022/06/06 02:06:52;;;;;;;;;;;;;;;17.36;76.45;100058.97;5095045;28;19924;-52
2022/06/06 02:09:20;;;;;;;;;;;;;;;17.32;76.40;100044.00;5095392;28;19935;-52
2022/06/06 02:11:47;;;;;;;;;;;;;;;17.27;76.33;100047.94;5095308;28;19924;-54
2022/06/06 02:14:17;;;;;;;;;;;;;;;17.34;76.83;100050.09;5094753;28;19924;-53
2022/06/06 02:16:44;;;;;;;;;;;;;;;17.25;77.50;100042.69;5094831;28;20304;-52
2022/06/06 02:19:13;;;;;;;;;;;;;;;17.29;77.56;100051.22;5095091;28;19931;-52
2022/06/06 02:21:40;;;;;;;;;;;;;;;17.34;76.88;100050.91;5094801;28;19924;-55
2022/06/06 02:24:08;;;;;;;;;;;;;;;17.27;77.22;100044.31;5094917;28;19932;-51
2022/06/06 02:26:35;;;;;;;;;;;;;;;17.25;78.97;100050.31;5094804;28;19924;-52
2022/06/06 02:29:02;;;;;;;;;;;;;;;17.30;77.74;100054.84;5094653;28;19924;-53
2022/06/06 02:31:37;;;;;;;;;;;;;;;17.24;78.33;100068.41;5094596;28;19924;-52
2022/06/06 02:34:04;;;;;;;;;;;;;;;17.18;78.56;100058.63;5094990;28;19924;-54
2022/06/06 02:36:33;;;;;;;;;;;;;;;17.17;80.35;100068.25;5094202;28;19931;-54
2022/06/06 02:39:02;;;;;;;;;;;;;;;17.19;80.00;100072.31;5094557;28;20391;-52
2022/06/06 02:41:29;;;;;;;;;;;;;;;17.20;80.00;100067.50;5094520;28;19947;-51
2022/06/06 02:43:57;;;;;;;;;;;;;;;17.17;79.87;100062.59;5094280;28;19924;-52
2022/06/06 02:46:24;;;;;;;;;;;;;;;17.12;80.43;100066.53;5093880;28;19924;-51
2022/06/06 02:48:51;;;;;;;;;;;;;;;17.13;81.18;100062.53;5093887;28;19924;-51
2022/06/06 02:51:18;;;;;;;;;;;;;;;17.07;81.00;100064.00;5094520;28;19924;-52
2022/06/06 02:53:47;;;;;;;;;;;;;;;17.13;83.43;100061.72;5091562;28;20395;-52
2022/06/06 02:56:14;;;;;;;;;;;;;;;17.21;82.89;100060.69;5094109;28;20288;-54
2022/06/06 02:58:41;;;;;;;;;;;;;;;17.12;83.01;100060.91;5094594;28;19924;-52
2022/06/06 03:01:10;;;;;;;;;;;;;;;17.23;83.34;100066.75;5094264;28;19935;-51
2022/06/06 03:03:37;;;;;;;;;;;;;;;17.25;82.25;100059.56;5093595;28;20300;-52
2022/06/06 03:06:12;;;;;;;;;;;;;;;17.29;82.45;100064.47;5093905;28;19935;-52
2022/06/06 03:08:46;;;;;;;;;;;;;;;17.35;83.17;100072.25;5094089;28;19931;-52
2022/06/06 03:11:22;;;;;;;;;;;;;;;17.35;83.29;100068.63;5093639;28;19924;-51
2022/06/06 03:14:05;;;;;;;;;;;;;;;17.40;80.94;100066.31;5093820;28;19931;-54
2022/06/06 03:22:18;;;;;;;;;;;;;;;17.45;82.15;100068.03;5096622;28;19924;-52
2022/06/06 03:24:53;;;;;;;;;;;;;;;17.43;82.50;100071.22;5093346;28;19924;-54
2022/06/06 03:27:25;;;;;;;;;;;;;;;17.45;84.76;100068.84;5093678;28;19936;-55
2022/06/06 03:30:01;;;;;;;;;;;;;;;17.52;85.55;100056.09;5093504;28;19924;-51
2022/06/06 03:32:38;;;;;;;;;;;;;;;17.56;85.17;100069.06;5093512;28;19924;-54
2022/06/06 03:35:09;;;;;;;;;;;;;;;17.55;82.03;100077.88;5093475;28;19924;-55
2022/06/06 03:37:39;;;;;;;;;;;;;;;17.52;84.20;100073.00;5093433;28;20288;-55
2022/06/06 03:40:12;;;;;;;;;;;;;;;17.56;85.05;100079.50;5093036;28;19924;-55
2022/06/06 03:42:46;;;;;;;;;;;;;;;17.57;85.09;100072.69;5093047;28;19924;-52
2022/06/06 03:45:19;;;;;;;;;;;;;;;17.62;84.05;100069.56;5093278;28;20407;-52
2022/06/06 03:47:51;;;;;;;;;;;;;;;17.59;81.61;100068.28;5093188;28;19924;-54
2022/06/06 03:50:28;;;;;;;;;;;;;;;17.62;81.70;100069.56;5093077;28;19936;-53
2022/06/06 03:52:59;;;;;;;;;;;;;;;17.50;80.75;100073.34;5092531;28;19928;-55
2022/06/06 03:55:32;;;;;;;;;;;;;;;17.51;79.52;100065.72;5078761;28;19932;-55
2022/06/06 03:58:01;;;;;;;;;;;;;;;17.54;81.57;100059.34;5072709;28;20031;-53
2022/06/06 04:00:28;;;;;;;;;;;;;;;17.55;80.57;100058.16;5072821;28;19931;-54
2022/06/06 04:02:56;;;;;;;;;;;;;;;17.44;78.79;100067.19;5073100;28;19931;-53
2022/06/06 04:05:23;;;;;;;;;;;;;;;17.51;80.17;100065.72;5072232;28;19925;-55
2022/06/06 04:07:53;;;;;;;;;;;;;;;17.32;78.14;100078.59;5072121;28;19925;-53
2022/06/06 04:10:22;;;;;;;;;;;;;;;17.36;79.49;100076.69;5072372;28;20277;-52
2022/06/06 04:13:04;;;;;;;;;;;;;;;17.40;77.31;100077.56;5072839;28;20311;-55
2022/06/06 04:15:45;;;;;;;;;;;;;;;17.33;78.70;100085.88;5072909;28;19924;-53
2022/06/06 04:18:18;;;;;;;;;;;;;;;17.26;77.18;100085.75;5072465;28;19947;-52
2022/06/06 04:20:50;;;;;;;;;;;;;;;17.27;77.49;100095.00;5072324;28;19924;-56
2022/06/06 04:23:34;;;;;;;;;;;;;;;17.27;78.05;100089.38;5072420;28;19931;-53
2022/06/06 04:26:11;;;;;;;;;;;;;;;17.36;78.29;100098.41;5072153;28;19932;-54
2022/06/06 04:28:44;;;;;;;;;;;;;;;17.36;77.94;100092.75;5072420;28;20280;-54
2022/06/06 04:31:17;;;;;;;;;;;;;;;17.35;77.11;100091.16;5072397;28;20300;-55
2022/06/06 04:33:46;;;;;;;;;;;;;;;17.37;75.65;100097.22;5072060;28;19934;-52
2022/06/06 04:36:18;;;;;;;;;;;;;;;17.40;76.29;100094.47;5072482;28;19932;-54
2022/06/06 04:38:55;;;;;;;;;;;;;;;17.42;76.31;100106.16;5072331;28;19924;-55
2022/06/06 04:41:26;;;;;;;;;;;;;;;17.42;75.04;100100.53;5072260;28;19924;-52
2022/06/06 04:43:59;;;;;;;;;;;;;;;17.45;78.48;100104.63;5072075;28;19925;-52
2022/06/06 04:46:34;;;;;;;;;;;;;;;17.52;76.82;100112.41;5072223;28;19925;-54
2022/06/06 04:49:05;;;;;;;;;;;;;;;17.53;75.22;100109.22;5071847;28;19928;-52
2022/06/06 04:51:33;;;;;;;;;;;;;;;17.54;74.97;100104.41;5072158;28;20313;-52
2022/06/06 04:54:00;;;;;;;;;;;;;;;17.44;74.07;100106.63;5073726;28;19929;-52
2022/06/06 04:56:28;;;;;;;;;;;;;;;17.53;73.87;100108.41;5092415;28;19924;-54
2022/06/06 04:58:57;;;;;;;;;;;;;;;17.43;74.23;100110.63;5092483;28;20392;-54
2022/06/06 05:01:24;;;;;;;;;;;;;;;17.48;75.21;100111.53;5092198;28;19931;-52
2022/06/06 05:03:53;;;;;;;;;;;;;;;17.42;73.52;100117.44;5092439;28;19932;-52
2022/06/06 05:06:28;;;;;;;;;;;;;;;17.44;73.47;100117.88;5092343;28;19931;-52
2022/06/06 05:09:07;;;;;;;;;;;;;;;17.41;72.37;100129.09;5094018;28;19924;-52
2022/06/06 05:11:40;;;;;;;;;;;;;;;17.51;73.43;100120.03;5096395;28;19931;-52
2022/06/06 05:14:19;;;;;;;;;;;;;;;17.59;72.04;100123.81;5096798;28;19931;-52
2022/06/06 05:16:58;;;;;;;;;;;;;;;17.62;71.45;100129.53;5095939;28;19931;-53
2022/06/06 05:19:42;;;;;;;;;;;;;;;17.63;71.65;100125.50;5096072;28;19924;-53
2022/06/06 05:22:17;;;;;;;;;;;;;;;17.73;72.04;100126.13;5095969;28;19924;-52
2022/06/06 05:25:03;;;;;;;;;;;;;;;17.67;70.09;100125.59;5096046;28;19923;-52
2022/06/06 05:27:48;;;;;;;;;;;;;;;17.56;70.00;100124.56;5095876;28;20295;-52
2022/06/06 05:30:18;;;;;;;;;;;;;;;17.74;70.16;100130.56;5095836;28;19924;-53
2022/06/06 05:33:06;;;;;;;;;;;;;;;17.84;69.07;100130.78;5095849;28;19925;-54
2022/06/06 05:35:49;;;;;;;;;;;;;;;17.83;68.50;100125.56;5090697;28;19924;-52
2022/06/06 05:38:23;;;;;;;;;;;;;;;17.94;69.78;100120.94;5093746;28;19924;-54
2022/06/06 05:40:55;;;;;;;;;;;;;;;18.04;70.19;100120.31;5095131;28;19924;-55
2022/06/06 05:43:29;;;;;;;;;;;;;;;18.28;68.65;100123.16;5095528;28;19928;-55
2022/06/06 05:46:04;;;;;;;;;;;;;;;18.41;68.44;100130.22;5095361;28;19932;-55
2022/06/06 05:48:42;;;;;;;;;;;;;;;18.41;68.59;100119.75;5095498;28;19928;-55
2022/06/06 05:51:16;;;;;;;;;;;;;;;18.17;67.83;100132.25;5095368;28;19924;-55
2022/06/06 05:53:55;;;;;;;;;;;;;;;18.23;71.64;100130.75;5095530;28;19924;-53
2022/06/06 05:56:37;;;;;;;;;;;;;;;18.36;66.36;100133.38;5095204;28;19928;-53
2022/06/06 05:59:16;;;;;;;;;;;;;;;18.39;67.24;100138.25;5093836;28;19924;-52
2022/06/06 06:01:56;;;;;;;;;;;;;;;18.46;67.45;100149.69;5095016;28;19998;-53
2022/06/06 06:04:33;;;;;;;;;;;;;;;18.32;67.19;100144.59;5094702;28;19946;-52
2022/06/06 06:07:04;;;;;;;;;;;;;;;18.44;65.88;100150.03;5094600;28;20376;-53
2022/06/06 06:09:47;;;;;;;;;;;;;;;18.45;68.26;100153.69;5094798;28;19924;-52
2022/06/06 06:12:22;;;;;;;;;;;;;;;18.39;66.08;100143.91;5094966;28;19924;-55
2022/06/06 06:14:56;;;;;;;;;;;;;;;18.39;66.83;100143.91;5094900;28;19924;-53
2022/06/06 06:17:25;;;;;;;;;;;;;;;18.51;65.10;100151.38;5094937;28;19924;-52
2022/06/06 06:19:59;;;;;;;;;;;;;;;18.35;63.40;100159.94;5092972;28;19928;-52
2022/06/06 06:22:28;;;;;;;;;;;;;;;18.64;67.23;100155.63;5094623;28;19931;-52
2022/06/06 06:25:01;;;;;;;;;;;;;;;18.55;63.31;100153.06;5094647;28;19924;-53
2022/06/06 06:27:29;;;;;;;;;;;;;;;18.62;64.87;100146.72;5094825;28;19931;-51
2022/06/06 06:29:57;;;;;;;;;;;;;;;18.73;61.69;100158.16;5094735;28;19947;-53
2022/06/06 06:32:45;;;;;;;;;;;;;;;18.72;62.67;100156.56;5094816;28;20376;-54
2022/06/06 06:35:16;;;;;;;;;;;;;;;18.70;63.06;100145.63;5094788;28;19928;-52
2022/06/06 06:37:53;;;;;;;;;;;;;;;18.80;61.47;100161.16;5094162;28;19924;-52
2022/06/06 06:40:29;;;;;;;;;;;;;;;18.51;63.33;100155.00;5094129;28;20344;-53
2022/06/06 06:43:03;;;;;;;;;;;;;;;18.58;63.34;100152.31;5093914;28;19924;-52
2022/06/06 06:45:31;;;;;;;;;;;;;;;18.58;61.42;100157.97;5094753;28;19932;-52
2022/06/06 06:47:59;;;;;;;;;;;;;;;18.64;59.81;100150.78;5094138;28;19931;-52
2022/06/06 06:50:32;;;;;;;;;;;;;;;18.57;60.25;100153.50;5094259;28;20308;-53
2022/06/06 06:53:06;;;;;;;;;;;;;;;18.58;60.49;100157.97;5094102;28;19931;-52
2022/06/06 06:55:40;;;;;;;;;;;;;;;18.60;60.25;100157.56;5093983;28;19924;-53
2022/06/06 06:58:16;;;;;;;;;;;;;;;18.82;59.34;100159.59;5093816;28;19935;-52
2022/06/06 07:00:48;;;;;;;;;;;;;;;18.79;59.20;100167.97;5093655;28;19924;-52
2022/06/06 07:09:02;;;;;;;;;;;;;;;18.50;58.30;100164.66;5100888;28;19924;-53
2022/06/06 07:11:36;;;;;;;;;;;;;;;18.64;58.75;100155.63;5094093;28;19932;-52
2022/06/06 07:14:05;;;;;;;;;;;;;;;18.67;57.28;100166.97;5093941;28;19928;-53
2022/06/06 07:16:35;;;;;;;;;;;;;;;18.99;57.56;100161.06;5094120;28;20285;-52
2022/06/06 07:19:04;;;;;;;;;;;;;;;19.28;57.51;100175.63;5093764;28;19931;-53
2022/06/06 07:21:32;;;;;;;;;;;;;;;19.60;58.18;100172.41;5093970;28;19925;-52
2022/06/06 07:24:02;;;;;;;;;;;;;;;19.84;56.66;100176.78;5093396;28;19924;-53
2022/06/06 07:26:29;;;;;;;;;;;;;;;19.90;53.54;100174.44;5093605;28;19953;-52
2022/06/06 07:28:57;;;;;;;;;;;;;;;19.89;53.42;100173.63;5092789;28;19924;-53
2022/06/06 07:31:28;;;;;;;;;;;;;;;19.97;54.75;100180.16;5093168;28;19931;-52
2022/06/06 07:34:06;;;;;;;;;;;;;;;19.71;53.11;100179.03;5093590;28;19924;-55
2022/06/06 07:36:39;;;;;;;;;;;;;;;19.62;52.85;100175.69;5093477;28;19935;-52
2022/06/06 07:39:18;;;;;;;;;;;;;;;19.80;51.36;100179.59;5093365;28;19924;-54
2022/06/06 07:41:57;;;;;;;;;;;;;;;19.81;52.74;100175.53;5093556;28;20388;-55
2022/06/06 07:44:37;;;;;;;;;;;;;;;19.82;56.58;100185.66;5093610;28;19924;-53
2022/06/06 07:47:08;;;;;;;;;;;;;;;19.99;53.70;100177.75;5093111;28;19931;-56
2022/06/06 07:49:42;;;;;;;;;;;;;;;20.18;53.46;100173.94;5093586;28;20233;-53
2022/06/06 07:52:19;;;;;;;;;;;;;;;20.61;52.96;100168.75;5093251;28;19931;-53
2022/06/06 07:54:52;;;;;;;;;;;;;;;21.32;49.20;100171.31;5092995;28;19924;-52
2022/06/06 07:57:25;;;;;;;;;;;;;;;22.08;45.77;100176.16;5093286;28;20300;-54
2022/06/06 08:00:00;;;;;;;;;;;;;;;22.79;49.41;100159.69;5093014;28;20269;-53
2022/06/06 08:02:42;;;;;;;;;;;;;;;23.45;46.69;100171.38;5092730;28;19924;-52
2022/06/06 08:05:21;;;;;;;;;;;;;;;24.36;42.48;100189.72;5090816;28;20344;-52
2022/06/06 08:07:59;;;;;;;;;;;;;;;24.81;39.86;100171.94;5093486;28;20383;-51
2022/06/06 08:10:31;;;;;;;;;;;;;;;25.21;40.25;100169.56;5092546;28;19924;-53
2022/06/06 08:13:11;;;;;;;;;;;;;;;26.24;39.62;100172.44;5093304;28;19924;-53
2022/06/06 08:15:48;;;;;;;;;;;;;;;26.76;38.71;100163.50;5093151;28;20361;-53
2022/06/06 08:18:24;;;;;;;;;;;;;;;26.61;34.42;100165.00;5092961;28;19931;-52
2022/06/06 08:20:56;;;;;;;;;;;;;;;26.97;35.18;100153.75;5092797;28;19931;-52
2022/06/06 08:23:23;;;;;;;;;;;;;;;26.82;34.13;100160.97;5092507;28;19924;-50
2022/06/06 08:25:50;;;;;;;;;;;;;;;27.76;31.93;100157.19;5092775;28;19957;-54
2022/06/06 08:28:17;;;;;;;;;;;;;;;28.51;32.81;100144.91;5092509;28;20304;-55
2022/06/06 08:30:46;;;;;;;;;;;;;;;28.42;30.01;100150.44;5092677;28;19924;-55
2022/06/06 08:33:13;;;;;;;;;;;;;;;28.69;28.77;100153.09;5092171;28;19946;-54
2022/06/06 08:35:45;;;;;;;;;;;;;;;28.90;28.18;100142.34;5092971;28;19924;-53
2022/06/06 08:38:28;;;;;;;;;;;;;;;29.07;27.67;100143.91;5092074;28;19932;-52
2022/06/06 08:41:28;;;;;;;;;;;;;;;29.20;28.21;100151.81;5092593;28;19925;-54
2022/06/06 08:44:04;;;;;;;;;;;;;;;29.97;27.42;100146.41;5032225;28;19926;-52
2022/06/06 08:46:45;;;;;;;;;;;;;;;29.80;27.26;100137.84;5034553;28;19934;-52
2022/06/06 08:52:25;;;;;;;;;;;;;;;31.80;25.62;100138.16;5098766;28;19932;-52
2022/06/06 08:55:10;;;;;;;;;;;;;;;31.35;23.69;100128.69;5096115;28;19931;-54
2022/06/06 08:57:46;;;;;;;;;;;;;;;30.66;25.04;100132.31;5065527;28;19947;-53
2022/06/06 09:00:20;;;;;;;;;;;;;;;31.14;25.77;100133.16;5096314;28;19932;-52
2022/06/06 09:03:08;;;;;;;;;;;;;;;31.35;24.26;100130.75;5095938;28;19924;-55
2022/06/06 09:05:53;;;;;;;;;;;;;;;31.76;24.39;100128.84;5096362;28;19924;-53
2022/06/06 09:08:52;;;;;;;;;;;;;;;31.86;23.69;100133.41;5096409;28;20377;-55
2022/06/06 09:11:38;;;;;;;;;;;;;;;32.58;23.44;100135.56;5096628;28;19924;-55
2022/06/06 09:14:23;;;;;;;;;;;;;;;33.09;23.17;100135.84;5095586;28;19924;-53
2022/06/06 09:17:21;;;;;;;;;;;;;;;32.62;22.04;100134.13;5088843;28;19931;-56
2022/06/06 09:20:17;;;;;;;;;;;;;;;32.02;22.91;100134.47;5096598;28;19928;-56
2022/06/06 09:23:14;;;;;;;;;;;;;;;32.13;22.54;100149.28;5095882;28;19936;-53
2022/06/06 09:25:53;;;;;;;;;;;;;;;31.89;22.82;100143.19;5096244;28;20288;-52
2022/06/06 09:28:38;;;;;;;;;;;;;;;32.59;22.83;100143.75;5095827;28;19931;-51
2022/06/06 09:31:20;;;;;;;;;;;;;;;32.59;21.34;100155.28;5095639;28;19940;-54
2022/06/06 09:34:11;;;;;;;;;;;;;;;31.44;22.74;100141.59;5095703;28;19932;-54
2022/06/06 09:36:46;;;;;;;;;;;;;;;31.14;23.43;100141.78;5095615;28;19932;-52
2022/06/06 09:39:25;;;;;;;;;;;;;;;30.57;24.44;100163.78;5095662;28;20262;-56
2022/06/06 09:41:58;;;;;;;;;;;;;;;31.75;22.96;100150.28;5095487;28;19924;-52
2022/06/06 09:44:41;;;;;;;;;;;;;;;32.20;22.80;100146.09;5096188;28;19935;-52
2022/06/06 09:47:23;;;;;;;;;;;;;;;32.13;22.71;100160.81;5095082;28;19924;-54
2022/06/06 09:50:05;;;;;;;;;;;;;;;31.51;23.72;100144.97;5095867;28;20284;-53
2022/06/06 09:52:53;;;;;;;;;;;;;;;30.36;24.52;100142.31;5093247;28;20308;-55
2022/06/06 09:59:02;;;;;;;;;;;;;;;31.38;24.62;100149.97;5095520;28;19924;-55
2022/06/06 10:01:44;;;;;;;;;;;;;;;30.53;23.81;100143.81;5095810;28;19924;-52
2022/06/06 10:04:32;;;;;;;;;;;;;;;29.66;25.16;100138.25;5094824;28;19924;-53
2022/06/06 10:07:14;;;;;;;;;;;;;;;28.49;26.92;100144.53;5069372;28;19923;-52
2022/06/06 10:09:55;;;;;;;;;;;;;;;27.20;29.36;100134.97;5082520;28;20364;-54
2022/06/06 10:12:33;;;;;;;;;;;;;;;26.73;29.81;100130.91;5095293;28;19924;-51
2022/06/06 10:15:09;;;;;;;;;;;;;;;26.97;30.32;100122.31;5095000;28;19924;-50
2022/06/06 10:17:46;;;;;;;;;;;;;;;26.99;29.45;100134.13;5094917;28;19928;-54
2022/06/06 10:20:23;;;;;;;;;;;;;;;26.61;29.66;100139.28;5094851;28;19924;-53
2022/06/06 10:23:09;;;;;;;;;;;;;;;26.32;30.82;100146.19;5094752;28;19931;-54
2022/06/06 10:26:04;;;;;;;;;;;;;;;25.55;31.94;100132.53;5095445;28;19928;-55
2022/06/06 10:28:48;;;;;;;;;;;;;;;24.97;32.97;100132.31;5094836;28;20308;-56
2022/06/06 10:31:22;;;;;;;;;;;;;;;23.95;35.58;100146.84;5094466;28;19924;-53
2022/06/06 10:33:59;;;;;;;;;;;;;;;23.17;37.83;100160.88;5094636;28;20296;-55
2022/06/06 10:36:41;;;;;;;;;;;;;;;23.12;38.66;100157.63;5094294;28;20384;-52
2022/06/06 10:39:32;;;;;;;;;;;;;;;22.93;39.42;100159.69;5081829;28;19924;-53
2022/06/06 10:42:10;;;;;;;;;;;;;;;23.21;38.91;100160.88;5079182;28;20412;-54
2022/06/06 10:44:46;;;;;;;;;;;;;;;24.93;35.20;100157.19;5094558;28;19931;-55
2022/06/06 10:47:23;;;;;;;;;;;;;;;26.61;32.69;100162.13;5094199;28;20300;-56
2022/06/06 10:49:55;;;;;;;;;;;;;;;27.48;31.15;100162.25;5094583;28;20368;-53
2022/06/06 10:52:37;;;;;;;;;;;;;;;27.36;31.75;100143.66;5094274;28;19931;-53
2022/06/06 10:55:22;;;;;;;;;;;;;;;27.96;30.70;100154.34;5080792;28;20368;-56
2022/06/06 10:58:17;;;;;;;;;;;;;;;27.40;31.25;100147.25;5094477;28;19924;-53
2022/06/06 11:01:04;;;;;;;;;;;;;;;29.05;29.58;100137.03;5094315;28;19924;-55
2022/06/06 11:03:46;;;;;;;;;;;;;;;29.05;28.97;100145.63;5093394;28;19924;-57
2022/06/06 11:06:31;;;;;;;;;;;;;;;30.19;28.18;100130.09;5092716;28;19924;-51
2022/06/06 11:09:16;;;;;;;;;;;;;;;31.06;26.84;100137.53;5083291;28;19924;-56
2022/06/06 11:11:54;;;;;;;;;;;;;;;30.68;27.88;100131.81;5089080;28;19935;-51
2022/06/06 11:14:27;;;;;;;;;;;;;;;31.01;26.98;100126.59;5087685;28;19924;-55
2022/06/06 11:17:05;;;;;;;;;;;;;;;31.89;26.94;100128.78;5099996;28;19924;-55
2022/06/06 11:19:53;;;;;;;;;;;;;;;30.55;27.94;100140.47;5104035;28;20360;-57
2022/06/06 11:22:24;;;;;;;;;;;;;;;28.38;31.40;100126.00;5090085;28;19931;-57
2022/06/06 11:24:56;;;;;;;;;;;;;;;27.32;33.10;100132.31;5090162;28;19925;-52
2022/06/06 11:27:38;;;;;;;;;;;;;;;29.28;31.80;100127.41;5093153;28;19935;-52
2022/06/06 11:30:16;;;;;;;;;;;;;;;30.42;27.71;100108.84;5085442;28;19932;-56
2022/06/06 11:33:00;;;;;;;;;;;;;;;31.58;26.94;100103.59;5084896;28;20407;-55
2022/06/06 11:35:32;;;;;;;;;;;;;;;32.81;25.51;100105.34;5084170;28;19925;-52
2022/06/06 11:38:19;;;;;;;;;;;;;;;32.29;25.90;100107.88;5094669;28;19924;-55
2022/06/06 11:41:09;;;;;;;;;;;;;;;31.24;26.80;100099.47;5075751;28;19928;-52
2022/06/06 11:43:56;;;;;;;;;;;;;;;29.07;30.07;100120.97;5113163;28;19938;-53
2022/06/06 11:46:44;;;;;;;;;;;;;;;27.68;32.80;100116.47;5073654;28;20413;-55
2022/06/06 11:49:27;;;;;;;;;;;;;;;27.57;30.98;100130.19;5073054;28;20284;-55
2022/06/06 11:52:08;;;;;;;;;;;;;;;26.67;31.87;100132.63;5074186;28;19947;-53
2022/06/06 11:54:56;;;;;;;;;;;;;;;26.19;33.89;100128.06;5069771;28;20403;-53
2022/06/06 11:57:34;;;;;;;;;;;;;;;24.88;36.13;100115.72;5091371;28;19924;-57
2022/06/06 12:00:07;;;;;;;;;;;;;;;25.03;36.24;100122.09;5085440;28;19936;-57
2022/06/06 12:02:53;;;;;;;;;;;;;;;25.02;36.68;100117.59;5086416;28;19924;-53
2022/06/06 12:05:47;;;;;;;;;;;;;;;24.03;38.08;100120.00;5091978;28;19931;-54
2022/06/06 12:08:30;;;;;;;;;;;;;;;24.16;36.33;100123.97;5037372;28;19924;-56
2022/06/06 12:11:12;;;;;;;;;;;;;;;24.01;33.95;100128.94;5082153;28;19928;-55
2022/06/06 12:13:47;;;;;;;;;;;;;;;24.83;32.69;100121.03;5080848;28;19924;-57
2022/06/06 12:16:24;;;;;;;;;;;;;;;25.09;34.61;100120.41;5086661;28;20404;-53
2022/06/06 12:19:06;;;;;;;;;;;;;;;25.36;35.77;100116.84;5089008;28;20383;-56
2022/06/06 12:21:43;;;;;;;;;;;;;;;24.98;36.83;100125.38;5082768;28;20287;-55
2022/06/06 12:24:29;;;;;;;;;;;;;;;25.76;35.76;100119.25;5072175;28;19925;-52
2022/06/06 12:27:17;;;;;;;;;;;;;;;25.59;35.65;100121.88;5076988;28;19971;-54
2022/06/06 12:29:58;;;;;;;;;;;;;;;25.70;36.33;100108.31;5065960;28;20033;-53
2022/06/06 12:32:40;;;;;;;;;;;;;;;24.91;37.12;100099.81;5059246;28;20300;-53
2022/06/06 12:35:12;;;;;;;;;;;;;;;25.22;36.76;100092.19;5086712;28;19928;-55
2022/06/06 12:37:45;;;;;;;;;;;;;;;24.99;36.75;100109.91;5078886;28;19931;-53
2022/06/06 12:40:17;;;;;;;;;;;;;;;24.73;37.13;100114.22;5090105;28;19947;-56
2022/06/06 12:42:50;;;;;;;;;;;;;;;24.51;35.82;100122.13;5089589;28;19932;-56
2022/06/06 12:45:32;;;;;;;;;;;;;;;24.43;35.83;100129.88;5072292;28;19928;-56
2022/06/06 12:48:09;;;;;;;;;;;;;;;25.06;35.61;100117.56;5077230;28;19924;-55
2022/06/06 12:50:48;;;;;;;;;;;;;;;25.20;35.14;100116.59;5079198;28;20396;-56
2022/06/06 12:53:26;;;;;;;;;;;;;;;26.25;31.56;100105.53;5108436;28;19924;-56
2022/06/06 12:58:41;;;;;;;;;;;;;;;28.08;28.70;100102.13;5070030;28;19925;-53
2022/06/06 13:04:02;;;;;;;;;;;;;;;27.56;29.22;100091.41;5073340;28;20289;-54
2022/06/06 13:06:39;;;;;;;;;;;;;;;27.34;29.19;100088.97;5072174;28;19928;-55
2022/06/06 13:09:13;;;;;;;;;;;;;;;27.63;28.87;100092.03;5053349;28;19932;-55
2022/06/06 13:11:45;;;;;;;;;;;;;;;28.21;28.52;100085.06;5053269;28;19924;-55
2022/06/06 13:14:29;;;;;;;;;;;;;;;28.74;28.68;100082.94;5056219;28;19925;-55
2022/06/06 13:17:07;;;;;;;;;;;;;;;29.40;27.89;100069.28;5049667;28;19924;-55
2022/06/06 13:19:42;;;;;;;;;;;;;;;30.02;26.75;100065.41;5055480;28;20297;-54
2022/06/06 13:22:17;;;;;;;;;;;;;;;29.39;27.42;100067.66;5057385;28;19924;-57
2022/06/06 13:24:51;;;;;;;;;;;;;;;29.37;27.27;100067.31;5052561;28;19925;-53
2022/06/06 13:27:26;;;;;;;;;;;;;;;28.43;27.80;100068.16;5062152;28;19935;-53
2022/06/06 13:29:53;;;;;;;;;;;;;;;28.26;28.15;100068.13;5057019;28;19925;-53
2022/06/06 13:32:38;;;;;;;;;;;;;;;27.91;28.49;100064.09;5070080;28;19925;-56
2022/06/06 13:35:16;;;;;;;;;;;;;;;27.87;27.77;100067.00;5060715;28;19924;-56
2022/06/06 13:37:52;;;;;;;;;;;;;;;28.15;27.34;100067.59;5059231;28;19924;-52
2022/06/06 13:40:29;;;;;;;;;;;;;;;27.72;27.60;100068.56;5054242;28;19925;-53
2022/06/06 13:43:22;;;;;;;;;;;;;;;27.20;28.49;100069.22;5055562;28;19948;-55
2022/06/06 13:45:51;;;;;;;;;;;;;;;27.05;29.15;100080.91;5063005;28;19933;-55